Heath Springs, South Carolina
Current Conditions -  °F | °C
As of 9:35 AM on Friday 28 Nov 2014 (Local Time) from KLKR Reporting Station
Clear Clear  
Wind Chill:   Ceiling: Unl
Heat Index:   Visibility: 10mi
Dew Point: -6°   Wind: 8mph
Humidity: 52%   Direction: 20°NNE
Pressure: 30.41"   Gusts: NA
Location:  34.59°N, 80.68°W
Report Text: KLKR 281435Z AUTO 02007KT 10SM CLR 03/M06 A3041 RMK AO2
Loading
Personal Weather Stations






























Interactive Weather Map New forecast layout! Learn more

10-Day Weather Forecast

Advertisements
Track Severe Weather on mobile